Time;durP1;ratioP1;P1;durP2;ratioP2;P2;SDS_P1;SDS_P2;PMS_P1;PMS_P2;Temp;Humidity;BMP_temperature;BMP_pressure;BME280_temperature;BME280_humidity;BME280_pressure;Samples;Min_cycle;Max_cycle;Signal;HPM_P1;HPM_P2
2021/11/07 00:06:52;;;;;;;39.50;27.10;;;;;;;9.20;78.24;94355.84;5104146;28;20027;-45
2021/11/07 00:12:00;;;;;;;45.97;28.77;;;;;;;9.43;78.51;94379.13;5103296;28;20032;-44
2021/11/07 00:14:27;;;;;;;41.85;27.92;;;;;;;9.53;77.99;94378.25;5102009;28;20020;-45
2021/11/07 00:16:54;;;;;;;42.42;27.70;;;;;;;9.56;77.20;94384.72;5101892;28;20020;-45
2021/11/07 00:19:29;;;;;;;41.63;26.13;;;;;;;9.71;77.51;94385.78;5103380;28;20019;-46
2021/11/07 00:22:11;;;;;;;43.20;27.60;;;;;;;9.80;76.17;94379.16;5101376;28;20016;-46
2021/11/07 00:24:45;;;;;;;41.65;25.83;;;;;;;9.81;76.32;94386.19;5103018;28;20026;-45
2021/11/07 00:32:43;;;;;;;42.17;26.17;;;;;;;10.04;75.18;94390.13;5102188;28;20027;-42
2021/11/07 00:37:53;;;;;;;40.42;25.73;;;;;;;10.11;76.05;94381.28;5101554;28;20103;-43
2021/11/07 00:42:54;;;;;;;46.67;26.77;;;;;;;10.00;76.67;94375.16;5100898;28;20031;-45
2021/11/07 00:45:29;;;;;;;42.95;26.90;;;;;;;10.03;76.59;94366.56;5100797;28;20810;-44
2021/11/07 00:50:59;;;;;;;39.42;26.25;;;;;;;10.20;75.67;94345.00;5094414;28;20031;-44
2021/11/07 00:56:16;;;;;;;41.92;27.92;;;;;;;10.25;75.70;94344.19;5112385;28;20102;-43
2021/11/07 01:01:34;;;;;;;34.03;20.80;;;;;;;10.28;75.43;94356.94;5081241;28;20035;-44
2021/11/07 01:04:02;;;;;;;42.22;23.05;;;;;;;10.38;75.75;94349.75;5104370;28;20412;-43
2021/11/07 01:06:30;;;;;;;31.40;19.03;;;;;;;10.43;77.29;94350.94;5111498;28;20027;-44
2021/11/07 01:08:55;;;;;;;34.53;22.85;;;;;;;9.93;77.73;94332.34;5111922;28;20031;-42
2021/11/07 01:11:21;;;;;;;39.45;23.42;;;;;;;10.11;78.19;94348.19;5100994;28;20024;-43
2021/11/07 01:13:47;;;;;;;40.75;24.60;;;;;;;10.24;78.46;94353.75;5091905;28;20020;-43
2021/11/07 01:16:13;;;;;;;54.78;32.75;;;;;;;10.34;78.80;94345.81;5112224;28;20537;-43
2021/11/07 01:18:39;;;;;;;40.75;24.45;;;;;;;10.34;78.71;94345.81;5112123;28;20028;-42
2021/11/07 01:21:05;;;;;;;43.67;24.55;;;;;;;10.36;78.44;94349.53;5111649;28;20640;-43
2021/11/07 01:26:09;;;;;;;45.05;25.73;;;;;;;10.52;78.60;94337.50;5111907;28;20027;-43
2021/11/07 01:28:44;;;;;;;42.55;26.77;;;;;;;10.55;78.86;94333.66;5102080;28;20024;-43
2021/11/07 01:31:10;;;;;;;44.60;27.85;;;;;;;10.53;79.28;94329.94;5100117;28;20409;-42
2021/11/07 01:33:35;;;;;;;40.88;25.30;;;;;;;10.66;79.20;94329.97;5100669;28;20024;-43
2021/11/07 01:36:15;;;;;;;43.92;26.02;;;;;;;10.68;79.24;94321.91;5110236;28;20027;-42
2021/11/07 01:41:25;;;;;;;36.17;24.13;;;;;;;10.85;78.34;94316.09;5101716;28;20019;-43
2021/11/07 01:43:53;;;;;;;40.55;24.50;;;;;;;10.79;78.82;94310.66;5109838;28;20092;-41
2021/11/07 01:48:57;;;;;;;37.63;24.58;;;;;;;10.82;79.19;94300.56;5104151;28;20084;-41
2021/11/07 01:51:24;;;;;;;37.45;22.95;;;;;;;10.85;79.13;94303.00;5091192;28;20121;-41
2021/11/07 01:53:53;;;;;;;41.75;23.25;;;;;;;10.83;77.65;94296.56;5090706;28;20168;-42
2021/11/07 01:56:18;;;;;;;43.73;24.43;;;;;;;10.78;78.39;94297.38;5089640;28;20544;-42
2021/11/07 01:58:45;;;;;;;41.38;24.20;;;;;;;10.85;78.68;94297.50;5090884;28;20446;-42
2021/11/07 02:01:11;;;;;;;49.78;25.60;;;;;;;10.87;81.59;94300.47;5090992;28;20020;-41
2021/11/07 02:03:37;;;;;;;52.95;28.92;;;;;;;10.90;82.93;94299.41;5100368;28;20115;-41
2021/11/07 02:06:03;;;;;;;53.38;29.20;;;;;;;11.05;84.02;94302.41;5111187;28;20015;-42
2021/11/07 02:08:29;;;;;;;62.78;33.40;;;;;;;11.13;86.28;94305.28;5092451;28;20031;-41
2021/11/07 02:10:56;;;;;;;57.53;33.15;;;;;;;11.23;88.98;94301.56;5090770;28;20409;-41
2021/11/07 02:13:23;;;;;;;71.03;36.53;;;;;;;11.40;89.83;94301.22;5090508;28;20032;-42
2021/11/07 02:15:49;;;;;;;58.40;33.03;;;;;;;11.58;91.18;94297.56;5107824;28;20095;-42
2021/11/07 02:18:17;;;;;;;56.13;32.08;;;;;;;11.69;90.68;94302.16;5111042;28;20457;-42
2021/11/07 02:20:45;;;;;;;52.95;31.05;;;;;;;11.79;90.33;94308.72;5110984;28;20467;-42
2021/11/07 02:23:14;;;;;;;57.22;30.27;;;;;;;11.82;89.71;94313.94;5111021;28;20455;-42
2021/11/07 02:25:41;;;;;;;52.97;30.65;;;;;;;11.93;88.92;94313.66;5110591;28;20058;-42
2021/11/07 02:28:07;;;;;;;61.85;31.80;;;;;;;11.93;88.42;94310.19;5104525;28;20074;-42
2021/11/07 02:30:35;;;;;;;48.75;29.85;;;;;;;12.02;88.40;94318.75;5090217;28;20032;-43
2021/11/07 02:33:00;;;;;;;53.35;30.05;;;;;;;12.14;87.85;94319.25;5090549;28;20020;-42
2021/11/07 02:35:27;;;;;;;52.03;30.13;;;;;;;12.08;87.81;94308.28;5089083;28;20020;-41
2021/11/07 02:37:53;;;;;;;48.53;28.73;;;;;;;12.24;87.42;94314.00;5088630;28;20428;-41
2021/11/07 02:40:19;;;;;;;51.50;29.73;;;;;;;12.22;86.98;94317.31;5092873;28;20051;-42
2021/11/07 02:42:46;;;;;;;50.20;29.95;;;;;;;12.30;86.80;94317.41;5099139;28;20109;-41
2021/11/07 02:45:14;;;;;;;52.83;31.38;;;;;;;12.04;87.46;94287.78;5099603;28;20508;-41
2021/11/07 02:47:40;;;;;;;58.70;30.42;;;;;;;12.13;88.21;94304.66;5101030;28;20023;-41
2021/11/07 02:50:07;;;;;;;50.90;28.33;;;;;;;12.25;87.71;94304.41;5098991;28;20656;-42
2021/11/07 02:52:33;;;;;;;54.08;30.30;;;;;;;12.18;87.61;94301.03;5093313;28;20036;-43
2021/11/07 02:54:59;;;;;;;57.38;30.55;;;;;;;12.10;88.35;94321.63;5094432;28;20024;-42
2021/11/07 02:57:25;;;;;;;55.10;30.13;;;;;;;12.15;88.14;94312.44;5094183;28;20024;-42
2021/11/07 02:59:58;;;;;;;58.78;30.85;;;;;;;12.10;88.22;94303.00;5094253;28;20016;-42
2021/11/07 03:02:25;;;;;;;52.83;29.40;;;;;;;12.11;87.95;94314.78;5094459;28;20032;-44
2021/11/07 03:04:51;;;;;;;56.30;32.08;;;;;;;12.04;88.40;94310.66;5094427;28;20020;-42
2021/11/07 03:07:17;;;;;;;51.35;30.38;;;;;;;12.12;88.18;94292.13;5093906;28;20061;-43
2021/11/07 03:09:42;;;;;;;48.35;28.88;;;;;;;12.27;87.38;94288.00;5094203;28;20044;-43
2021/11/07 03:12:09;;;;;;;46.45;26.75;;;;;;;12.25;87.43;94293.34;5094103;28;20020;-42
2021/11/07 03:14:41;;;;;;;52.92;28.48;;;;;;;12.25;86.97;94294.09;5100915;28;20049;-43
2021/11/07 03:17:07;;;;;;;49.28;29.92;;;;;;;12.18;87.09;94283.69;5114493;28;20428;-43
2021/11/07 03:19:33;;;;;;;48.95;28.55;;;;;;;12.13;87.48;94282.53;5114162;28;20107;-41
2021/11/07 03:22:04;;;;;;;53.15;28.58;;;;;;;12.14;87.58;94288.81;5114409;27;20022;-43
2021/11/07 03:24:30;;;;;;;54.22;29.48;;;;;;;12.11;87.90;94285.09;5114279;27;20031;-41
2021/11/07 03:26:57;;;;;;;46.55;27.70;;;;;;;12.14;87.65;94284.03;5112876;28;20493;-44
2021/11/07 03:29:31;;;;;;;44.28;26.65;;;;;;;12.25;87.32;94282.25;5096061;28;20760;-43
2021/11/07 03:32:04;;;;;;;42.42;26.95;;;;;;;12.16;86.87;94262.06;5093782;28;20035;-43
2021/11/07 03:34:32;;;;;;;44.78;25.75;;;;;;;12.30;86.29;94270.31;5093604;28;20469;-44
2021/11/07 03:37:02;;;;;;;44.63;26.27;;;;;;;12.39;85.89;94275.38;5093373;28;20024;-44
2021/11/07 03:39:31;;;;;;;49.42;27.58;;;;;;;12.40;85.47;94274.09;5093679;28;20058;-42
2021/11/07 03:41:56;;;;;;;41.33;24.10;;;;;;;12.44;85.44;94272.47;5093295;28;20020;-42
2021/11/07 03:44:23;;;;;;;55.65;27.02;;;;;;;12.30;85.74;94275.84;5093574;28;20024;-43
2021/11/07 03:46:51;;;;;;;47.92;27.80;;;;;;;12.28;86.50;94275.66;5093079;28;20123;-42
2021/11/07 03:49:17;;;;;;;41.65;24.27;;;;;;;11.95;86.32;94225.31;5093163;28;20055;-42
2021/11/07 03:51:44;;;;;;;44.00;25.15;;;;;;;12.39;86.27;94286.47;5093480;28;20449;-43
2021/11/07 03:54:11;;;;;;;41.72;25.30;;;;;;;12.42;85.82;94280.59;5093063;28;20497;-43
2021/11/07 03:56:37;;;;;;;45.47;27.23;;;;;;;12.39;85.95;94280.94;5093260;28;20132;-42
2021/11/07 03:59:02;;;;;;;41.50;26.15;;;;;;;12.44;85.79;94288.34;5095094;28;20512;-43
2021/11/07 04:01:28;;;;;;;44.40;24.80;;;;;;;12.46;85.11;94297.59;5113577;28;20752;-42
2021/11/07 04:03:53;;;;;;;46.55;25.40;;;;;;;12.44;84.74;94278.00;5112308;28;20044;-44
2021/11/07 04:06:19;;;;;;;49.22;26.42;;;;;;;12.44;84.65;94288.34;5113184;28;20027;-42
2021/11/07 04:08:45;;;;;;;58.10;28.23;;;;;;;12.37;85.18;94289.00;5113402;28;20077;-41
2021/11/07 04:11:11;;;;;;;44.85;25.63;;;;;;;12.46;85.45;94294.09;5113163;28;20054;-42
2021/11/07 04:13:39;;;;;;;44.10;25.73;;;;;;;12.49;85.40;94295.78;5113091;28;20051;-41
2021/11/07 04:16:06;;;;;;;51.30;25.60;;;;;;;12.43;86.10;94301.44;5112796;28;20023;-42
2021/11/07 04:18:32;;;;;;;43.65;24.83;;;;;;;12.34;86.13;94284.56;5112469;28;20011;-41
2021/11/07 04:20:58;;;;;;;47.70;26.77;;;;;;;12.22;87.10;94306.22;5112702;28;20039;-41
2021/11/07 04:23:23;;;;;;;47.35;26.77;;;;;;;12.20;87.55;94306.03;5112992;28;20477;-42
2021/11/07 04:25:49;;;;;;;48.78;26.48;;;;;;;12.25;87.57;94310.69;5113198;28;20130;-42
2021/11/07 04:28:14;;;;;;;50.05;25.58;;;;;;;12.24;87.46;94303.66;5105702;28;20131;-41
2021/11/07 04:30:40;;;;;;;43.30;25.30;;;;;;;12.30;87.29;94300.78;5092431;28;20044;-43
2021/11/07 04:33:05;;;;;;;52.92;26.13;;;;;;;12.22;87.66;94302.72;5092724;28;20027;-42
2021/11/07 04:35:31;;;;;;;49.75;26.00;;;;;;;12.27;87.39;94296.31;5092510;28;20460;-42
2021/11/07 04:37:56;;;;;;;43.90;24.38;;;;;;;12.34;87.17;94296.41;5091334;28;20058;-44
2021/11/07 04:40:25;;;;;;;44.90;25.27;;;;;;;12.36;86.78;94295.84;5092620;28;20039;-42
2021/11/07 04:42:50;;;;;;;49.80;26.07;;;;;;;12.33;86.54;94299.69;5092501;28;20024;-43
2021/11/07 04:45:16;;;;;;;46.45;24.40;;;;;;;12.33;86.66;94294.91;5092210;28;20029;-42
2021/11/07 04:47:42;;;;;;;51.42;27.33;;;;;;;12.32;86.65;94289.91;5092108;28;20492;-42
2021/11/07 04:50:10;;;;;;;42.45;23.38;;;;;;;12.30;86.57;94293.19;5090663;28;20027;-42
2021/11/07 04:52:36;;;;;;;38.35;23.35;;;;;;;12.31;86.93;94285.63;5092340;28;20024;-42
2021/11/07 04:55:02;;;;;;;215.70;36.95;;;;;;;12.27;87.10;94288.00;5091014;28;20070;-42
2021/11/07 04:57:27;;;;;;;44.97;24.13;;;;;;;12.09;87.98;94284.13;5092219;28;20101;-41
2021/11/07 04:59:52;;;;;;;42.45;22.85;;;;;;;12.03;88.68;94281.50;5092116;28;20489;-43
2021/11/07 05:02:18;;;;;;;49.22;27.33;;;;;;;12.01;88.77;94277.78;5091681;28;20452;-44
2021/11/07 05:04:43;;;;;;;40.88;24.38;;;;;;;12.03;88.98;94270.44;5110530;28;20114;-44
2021/11/07 05:07:09;;;;;;;45.35;24.77;;;;;;;12.02;88.78;94266.16;5112006;28;20028;-44
2021/11/07 05:09:35;;;;;;;46.75;26.15;;;;;;;12.06;88.95;94261.03;5111851;27;20080;-43
2021/11/07 05:12:01;;;;;;;49.42;26.65;;;;;;;12.05;88.42;94250.50;5111923;28;20475;-43
2021/11/07 05:14:27;;;;;;;52.40;27.10;;;;;;;12.09;88.56;94254.44;5111362;28;20019;-44
2021/11/07 05:16:52;;;;;;;50.40;25.52;;;;;;;12.08;88.44;94249.44;5111367;28;20112;-43
2021/11/07 05:19:18;;;;;;;48.45;25.25;;;;;;;12.10;88.65;94244.13;5111285;28;20125;-43
2021/11/07 05:21:44;;;;;;;56.97;27.92;;;;;;;12.17;88.58;94254.53;5111310;28;20028;-43
2021/11/07 05:24:09;;;;;;;71.15;25.83;;;;;;;12.25;87.90;94265.66;5111159;28;20420;-43
2021/11/07 05:26:35;;;;;;;54.80;26.85;;;;;;;12.15;88.22;94257.81;5111016;28;20047;-43
2021/11/07 05:29:02;;;;;;;45.55;25.23;;;;;;;12.26;87.87;94267.88;5097713;28;20370;-42
2021/11/07 05:31:29;;;;;;;48.95;25.33;;;;;;;12.39;87.06;94253.25;5090459;28;20034;-42
2021/11/07 05:33:55;;;;;;;41.80;22.77;;;;;;;12.39;86.88;94272.63;5091100;28;20116;-42
2021/11/07 05:36:21;;;;;;;45.60;24.35;;;;;;;12.31;87.08;94282.88;5090886;28;20074;-42
2021/11/07 05:38:47;;;;;;;41.72;21.88;;;;;;;12.23;87.61;94287.59;5090678;28;20031;-42
2021/11/07 05:41:12;;;;;;;42.85;23.67;;;;;;;12.27;87.55;94290.78;5090640;28;20016;-42
2021/11/07 05:43:38;;;;;;;43.08;22.08;;;;;;;12.16;87.31;94272.41;5090173;28;20020;-42
2021/11/07 05:46:04;;;;;;;43.60;22.65;;;;;;;12.27;87.35;94283.22;5090863;28;20022;-42
2021/11/07 05:48:29;;;;;;;50.83;26.10;;;;;;;12.12;88.22;94285.84;5090551;28;20397;-45
2021/11/07 05:50:57;;;;;;;49.40;26.13;;;;;;;11.86;89.54;94302.53;5089900;28;20020;-43
2021/11/07 05:53:23;;;;;;;49.63;25.15;;;;;;;11.82;90.58;94302.13;5090496;28;20024;-43
2021/11/07 05:55:48;;;;;;;146.40;26.48;;;;;;;11.87;90.39;94304.75;5096324;28;20042;-42
2021/11/07 05:58:14;;;;;;;42.97;23.40;;;;;;;11.92;90.26;94305.91;5110437;28;20023;-43
2021/11/07 06:00:40;;;;;;;44.17;22.58;;;;;;;11.89;90.28;94302.19;5110378;28;20016;-41
2021/11/07 06:03:07;;;;;;;41.03;21.67;;;;;;;11.92;90.36;94305.91;5110487;28;20035;-42
2021/11/07 06:05:34;;;;;;;42.10;23.00;;;;;;;12.06;89.79;94307.38;5110823;28;20043;-42
2021/11/07 06:08:00;;;;;;;42.38;23.13;;;;;;;12.03;89.49;94291.84;5110381;28;20027;-42
2021/11/07 06:10:25;;;;;;;44.45;22.60;;;;;;;11.94;89.52;94300.59;5110294;28;20028;-42
2021/11/07 06:12:52;;;;;;;34.67;20.15;;;;;;;12.08;88.88;94308.28;5110623;28;20069;-42
2021/11/07 06:15:17;;;;;;;40.08;21.33;;;;;;;12.11;88.76;94293.41;5109976;27;20237;-42
2021/11/07 06:17:43;;;;;;;39.45;19.08;;;;;;;12.19;88.29;94299.75;5104531;28;20023;-42
2021/11/07 06:20:09;;;;;;;43.25;20.90;;;;;;;12.27;87.84;94304.63;5100415;28;20026;-41
2021/11/07 06:22:35;;;;;;;36.53;19.77;;;;;;;12.36;87.42;94306.91;5099769;28;20142;-41
2021/11/07 06:25:01;;;;;;;40.28;18.23;;;;;;;12.21;86.77;94290.91;5100187;28;20024;-41
2021/11/07 06:27:29;;;;;;;42.92;22.33;;;;;;;12.19;87.65;94318.41;5089360;28;20042;-42
2021/11/07 06:29:54;;;;;;;39.53;22.17;;;;;;;12.23;88.06;94320.81;5093901;28;20024;-42
2021/11/07 06:32:20;;;;;;;37.95;22.73;;;;;;;12.31;88.01;94316.09;5090966;28;20059;-41
2021/11/07 06:34:46;;;;;;;32.40;18.48;;;;;;;12.36;86.80;94318.75;5090076;28;20058;-41
2021/11/07 06:37:12;;;;;;;35.42;19.75;;;;;;;12.40;86.72;94323.94;5089455;28;20492;-42
2021/11/07 06:39:38;;;;;;;32.78;18.52;;;;;;;12.45;86.45;94325.84;5089954;28;20418;-41
2021/11/07 06:42:04;;;;;;;33.47;19.15;;;;;;;12.43;86.13;94329.13;5090054;28;20103;-41
2021/11/07 06:44:31;;;;;;;29.77;18.02;;;;;;;12.45;86.37;94329.34;5101531;28;20058;-41
2021/11/07 06:46:57;;;;;;;37.20;18.73;;;;;;;12.29;86.83;94324.19;5109350;28;20023;-41
2021/11/07 06:49:22;;;;;;;31.13;19.83;;;;;;;12.30;87.64;94325.69;5107544;28;20034;-40
2021/11/07 06:51:48;;;;;;;37.10;19.20;;;;;;;12.32;87.79;94328.66;5106111;28;20032;-43
2021/11/07 06:54:14;;;;;;;32.33;18.42;;;;;;;12.34;87.62;94324.09;5110066;28;20065;-40
2021/11/07 06:56:40;;;;;;;31.92;18.63;;;;;;;12.24;87.73;94322.28;5109597;28;20016;-42
2021/11/07 06:59:07;;;;;;;33.00;18.77;;;;;;;12.43;87.25;94325.66;5109872;28;20060;-40
2021/11/07 07:01:33;;;;;;;27.90;16.90;;;;;;;12.55;86.29;94335.91;5109604;28;20037;-42
2021/11/07 07:03:59;;;;;;;29.52;17.17;;;;;;;12.59;85.97;94332.78;5108759;28;20028;-41
2021/11/07 07:06:26;;;;;;;32.38;18.60;;;;;;;12.66;85.31;94334.91;5103276;28;20018;-40
2021/11/07 07:09:05;;;;;;;36.38;20.45;;;;;;;12.55;86.00;94340.69;5099197;28;20018;-41
2021/11/07 07:12:03;;;;;;;37.00;19.15;;;;;;;12.53;86.50;94330.16;5104742;28;20072;-43
2021/11/07 07:14:31;;;;;;;36.83;20.45;;;;;;;12.64;85.49;94332.66;5108746;28;20046;-40
2021/11/07 07:17:13;;;;;;;;;;;;;;;12.78;85.42;94338.88;5110212;28;20031;-41
2021/11/07 07:19:51;;;;;;;26.50;15.40;;;;;;;12.77;85.36;94332.59;5094468;28;19944;-42
2021/11/07 07:25:16;;;;;;;19.75;13.48;;;;;;;13.00;83.55;94332.00;5090671;28;20027;-42
2021/11/07 07:33:28;;;;;;;23.30;15.53;;;;;;;13.01;81.69;94314.09;5088389;28;20056;-43
2021/11/07 07:35:42;;;;;;;21.88;12.90;;;;;;;13.09;81.33;94321.22;5086933;28;20495;-42
2021/11/07 07:38:08;;;;;;;19.60;12.40;;;;;;;12.95;81.90;94314.25;5087744;28;20497;-41
2021/11/07 07:40:33;;;;;;;19.98;12.98;;;;;;;13.06;81.67;94316.75;5090540;28;20028;-40
2021/11/07 07:42:59;;;;;;;22.63;16.42;;;;;;;13.09;81.58;94314.91;5090568;28;20119;-41
2021/11/07 07:45:25;;;;;;;18.00;12.50;;;;;;;13.17;81.72;94310.91;5090681;28;20032;-42
2021/11/07 07:47:51;;;;;;;17.75;12.13;;;;;;;13.33;81.48;94309.72;5093266;28;20023;-41
2021/11/07 07:50:18;;;;;;;21.38;13.60;;;;;;;13.43;81.08;94310.69;5096341;28;20397;-46
2021/11/07 07:52:44;;;;;;;17.83;12.57;;;;;;;13.53;79.94;94306.16;5096308;28;20036;-56
2021/11/07 07:55:12;;;;;;;19.88;13.77;;;;;;;13.58;79.25;94296.91;5098918;27;20038;-54
2021/11/07 07:57:38;;;;;;;19.20;14.02;;;;;;;13.48;79.64;94298.72;5090820;28;20532;-59
2021/11/07 08:00:09;;;;;;;21.27;13.73;;;;;;;13.55;79.77;94297.25;5095596;28;20024;-58
2021/11/07 08:02:34;;;;;;;23.77;12.75;;;;;;;13.51;80.08;94302.44;5102231;28;20024;-58
2021/11/07 08:05:00;;;;;;;18.90;12.98;;;;;;;13.32;80.16;94296.41;5109740;28;20421;-57
2021/11/07 08:07:27;;;;;;;23.25;15.10;;;;;;;13.16;81.46;94295.56;5111130;28;20050;-57
2021/11/07 08:09:54;;;;;;;21.48;13.98;;;;;;;13.09;81.86;94295.50;5110678;28;20039;-57
2021/11/07 08:12:19;;;;;;;18.00;12.95;;;;;;;13.16;81.14;94300.38;5109964;28;20156;-57
2021/11/07 08:14:45;;;;;;;21.20;14.35;;;;;;;13.34;81.09;94302.16;5103489;28;20680;-57
2021/11/07 08:17:10;;;;;;;17.95;11.95;;;;;;;13.48;79.87;94309.06;5110285;28;20069;-48
2021/11/07 08:19:36;;;;;;;17.15;11.73;;;;;;;13.51;79.71;94305.91;5110582;28;20026;-58
2021/11/07 08:22:02;;;;;;;19.27;11.25;;;;;;;13.45;78.73;94285.19;5110764;28;20042;-54
2021/11/07 08:24:30;;;;;;;17.88;12.27;;;;;;;13.32;79.62;94301.97;5110747;28;20024;-59
2021/11/07 08:26:56;;;;;;;18.73;12.20;;;;;;;13.23;80.05;94311.50;5099031;28;20476;-48
2021/11/07 08:29:22;;;;;;;44.10;14.88;;;;;;;13.12;80.63;94311.81;5100730;28;20028;-53
2021/11/07 08:31:51;;;;;;;19.08;12.90;;;;;;;12.99;81.43;94294.50;5110320;28;20570;-66
2021/11/07 08:34:19;;;;;;;18.88;13.07;;;;;;;13.01;81.35;94309.31;5107225;28;20401;-55
2021/11/07 08:39:45;;;;;;;16.77;11.63;;;;;;;13.14;80.84;94306.47;5092366;28;20590;-58
2021/11/07 08:42:17;;;;;;;15.75;12.32;;;;;;;12.98;81.18;94293.75;5104223;28;20024;-58
2021/11/07 09:03:53;;;;;;;16.05;12.75;;;;;;;13.98;76.64;94277.06;5106440;28;20045;-53
2021/11/07 09:08:45;;;;;;;19.38;12.43;;;;;;;13.88;76.71;94259.47;5099347;28;20651;-58
2021/11/07 09:11:12;;;;;;;157.73;23.17;;;;;;;13.86;76.88;94273.88;5089570;28;20026;-55
2021/11/07 09:13:38;;;;;;;17.38;12.55;;;;;;;13.89;76.88;94270.00;5091686;28;20051;-57
2021/11/07 09:16:05;;;;;;;19.08;12.38;;;;;;;13.79;77.01;94271.84;5109450;28;20031;-61
2021/11/07 09:18:32;;;;;;;18.88;12.43;;;;;;;13.68;77.73;94267.38;5109612;28;20683;-60
2021/11/07 09:21:10;;;;;;;21.02;13.55;;;;;;;13.64;77.94;94261.41;5109536;28;20489;-57
2021/11/07 09:23:41;;;;;;;17.50;14.50;;;;;;;13.69;78.54;94266.06;5109321;28;20023;-52
2021/11/07 09:26:24;;;;;;;18.88;14.68;;;;;;;13.76;77.85;94263.84;5109312;28;20031;-52
2021/11/07 09:34:19;;;;;;;17.20;14.30;;;;;;;13.69;77.66;94249.41;5109500;28;20031;-54
2021/11/07 09:39:17;;;;;;;17.40;12.52;;;;;;;13.80;78.20;94234.44;5103357;28;20028;-60
2021/11/07 09:44:21;;;;;;;21.42;13.25;;;;;;;13.81;78.08;94222.06;5093776;28;20119;-56
2021/11/07 09:47:00;;;;;;;17.23;12.98;;;;;;;13.78;78.04;94208.53;5108805;28;20030;-57
2021/11/07 09:49:34;;;;;;;81.95;18.88;;;;;;;13.84;77.77;94206.34;5108580;28;20080;-54
2021/11/07 09:52:14;;;;;;;21.60;14.43;;;;;;;13.77;77.81;94204.28;5108570;28;20028;-63
2021/11/07 09:54:46;;;;;;;46.42;14.65;;;;;;;13.80;78.10;94189.28;5108851;28;20622;-59
2021/11/07 09:57:16;;;;;;;17.80;13.00;;;;;;;13.99;77.39;94181.38;5108634;28;20019;-59
2021/11/07 09:59:42;;;;;;;16.80;12.27;;;;;;;14.16;76.60;94176.03;5108518;27;20024;-56
2021/11/07 10:02:07;;;;;;;18.58;11.93;;;;;;;14.54;74.48;94164.91;5106329;28;20023;-57
2021/11/07 10:04:36;;;;;;;17.67;13.73;;;;;;;14.92;73.80;94151.72;5094115;28;20023;-56
2021/11/07 10:07:19;;;;;;;;;;;;;;;15.48;71.79;94148.38;5105084;28;20088;-58
2021/11/07 10:09:52;;;;;;;16.83;11.40;;;;;;;15.97;69.59;94135.81;5106983;28;20030;-58
2021/11/07 10:12:31;;;;;;;13.70;10.15;;;;;;;16.30;67.14;94110.13;5109231;28;20032;-61
2021/11/07 10:15:02;;;;;;;;;;;;;;;16.84;65.50;94129.88;5110280;28;20031;-62
2021/11/07 10:17:45;;;;;;;14.13;10.88;;;;;;;16.86;64.86;94116.09;5111356;28;20448;-60
2021/11/07 10:22:57;;;;;;;13.20;10.80;;;;;;;17.44;63.07;94104.03;5111230;28;20096;-61
2021/11/07 10:25:31;;;;;;;14.52;10.27;;;;;;;17.76;61.57;94098.22;5110826;28;20096;-60
2021/11/07 10:27:58;;;;;;;14.27;10.70;;;;;;;18.62;59.98;94081.03;5104916;28;20102;-60
2021/11/07 10:30:26;;;;;;;12.65;10.43;;;;;;;19.49;56.14;94077.63;5090292;28;20020;-59
2021/11/07 10:33:15;;;;;;;13.85;10.52;;;;;;;19.38;55.46;94058.63;5094882;28;20028;-61
2021/11/07 10:36:06;;;;;;;14.45;10.75;;;;;;;19.64;54.59;94071.00;5110695;28;20087;-58
2021/11/07 10:41:43;;;;;;;14.93;10.13;;;;;;;19.44;54.96;94059.09;5107350;28;20437;-57
2021/11/07 10:44:34;;;;;;;16.00;11.35;;;;;;;19.41;54.73;94063.06;5110790;28;20092;-48
2021/11/07 10:52:38;;;;;;;16.13;12.13;;;;;;;19.58;54.27;94057.28;5109673;28;20088;-44
2021/11/07 10:55:17;;;;;;;14.40;11.43;;;;;;;19.73;54.27;94056.19;5110303;28;20036;-54
2021/11/07 10:57:44;;;;;;;;;;;;;;;19.44;53.90;94053.50;5110964;28;20425;-62
2021/11/07 11:00:39;;;;;;;12.73;10.75;;;;;;;19.18;54.62;94022.84;5108837;28;19951;-58
2021/11/07 11:03:08;;;;;;;14.05;10.70;;;;;;;19.27;54.72;94061.31;5109108;28;20044;-47
2021/11/07 11:05:35;;;;;;;;;;;;;;;18.36;56.84;94048.28;5111221;28;20104;-59
2021/11/07 11:08:16;;;;;;;18.13;13.43;;;;;;;17.35;60.74;94060.06;5110184;28;19943;-56
2021/11/07 11:10:54;;;;;;;19.95;14.20;;;;;;;16.48;63.28;94050.28;5110113;28;20020;-56
2021/11/07 11:35:47;;;;;;;18.30;13.70;;;;;;;17.23;61.18;94020.78;5097671;28;20044;-52
2021/11/07 11:38:19;;;;;;;16.20;12.57;;;;;;;17.91;59.57;94027.44;5109140;28;20045;-57
2021/11/07 11:43:19;;;;;;;21.00;15.15;;;;;;;18.18;58.69;94014.88;5114004;28;20481;-46
2021/11/07 11:45:47;;;;;;;21.10;13.57;;;;;;;18.28;57.82;94016.94;5113694;28;20024;-49
2021/11/07 11:59:36;;;;;;;17.45;12.82;;;;;;;18.03;58.57;93994.81;5098546;28;20408;-56
2021/11/07 12:02:10;;;;;;;19.20;12.25;;;;;;;17.86;59.03;93998.47;5113365;27;20098;-51
2021/11/07 12:05:15;;;;;;;15.88;12.00;;;;;;;17.51;60.17;93999.94;5111861;28;20031;-45
2021/11/07 12:07:56;;;;;;;17.45;13.43;;;;;;;17.55;60.48;93983.50;5111590;28;20042;-49
2021/11/07 12:10:33;;;;;;;19.83;12.68;;;;;;;17.57;60.30;93971.75;5112343;28;20132;-47
2021/11/07 12:13:08;;;;;;;18.13;12.73;;;;;;;17.57;60.42;93977.31;5112790;28;20024;-48
2021/11/07 12:15:49;;;;;;;18.80;13.18;;;;;;;17.87;59.75;93969.19;5111528;28;20037;-49
2021/11/07 12:18:14;;;;;;;20.20;13.77;;;;;;;17.74;59.69;93968.84;5112784;28;20467;-49
2021/11/07 12:20:42;;;;;;;17.05;12.00;;;;;;;17.65;59.72;93975.88;5113161;28;20119;-50
2021/11/07 12:23:17;;;;;;;21.02;14.43;;;;;;;17.35;60.75;93963.09;5113058;28;20522;-54
2021/11/07 12:25:44;;;;;;;15.10;11.77;;;;;;;17.54;60.32;93959.69;5111713;28;20493;-48
2021/11/07 12:28:09;;;;;;;18.13;12.52;;;;;;;17.15;61.47;93958.03;5112703;28;20043;-52
2021/11/07 12:30:36;;;;;;;20.80;15.48;;;;;;;16.79;63.02;93953.13;5111451;28;20470;-49
2021/11/07 12:44:56;;;;;;;22.20;16.60;;;;;;;17.61;60.22;93942.06;5128420;27;20607;-45
2021/11/07 12:47:27;;;;;;;25.77;16.95;;;;;;;17.08;62.23;93954.03;5119326;27;20038;-44
2021/11/07 12:50:02;;;;;;;17.52;13.55;;;;;;;16.67;63.56;93944.53;5126720;27;20103;-43
2021/11/07 12:52:28;;;;;;;36.25;20.63;;;;;;;16.23;64.99;93932.59;5087509;28;20107;-55
2021/11/07 12:54:54;;;;;;;27.23;17.75;;;;;;;15.93;66.68;93930.88;5087761;28;20487;-48
2021/11/07 12:57:22;;;;;;;29.80;18.00;;;;;;;15.55;68.35;93935.31;5087709;28;20539;-49
2021/11/07 12:59:50;;;;;;;28.17;17.63;;;;;;;15.37;69.56;93925.41;5087606;28;20431;-49
2021/11/07 13:02:21;;;;;;;22.83;14.93;;;;;;;15.42;69.26;93921.69;5087286;28;20111;-46
2021/11/07 13:05:03;;;;;;;25.88;17.05;;;;;;;15.22;70.15;93920.72;5087514;28;20028;-47
2021/11/07 13:07:40;;;;;;;25.58;19.02;;;;;;;15.00;71.36;93921.63;5098709;28;20027;-48
2021/11/07 13:10:10;;;;;;;28.35;17.63;;;;;;;14.97;71.35;93917.91;5113108;27;20039;-46
2021/11/07 13:12:44;;;;;;;27.20;18.50;;;;;;;14.99;71.55;93920.88;5106982;28;20027;-44
2021/11/07 13:31:43;;;;;;;24.33;17.52;;;;;;;14.28;74.50;93927.91;5084636;28;20464;-46
2021/11/07 13:34:12;;;;;;;27.80;19.75;;;;;;;14.23;75.01;93916.97;5102835;28;20110;-47
2021/11/07 13:36:43;;;;;;;24.38;18.92;;;;;;;14.27;75.07;93909.03;5104480;28;20520;-47
2021/11/07 13:39:11;;;;;;;35.00;18.35;;;;;;;14.43;74.60;93916.75;5104091;28;20024;-49
2021/11/07 13:41:37;;;;;;;35.67;24.27;;;;;;;14.61;73.91;93914.81;5109935;28;20035;-45
2021/11/07 13:44:09;;;;;;;29.73;21.90;;;;;;;14.81;73.84;93916.53;5121092;27;20055;-44
2021/11/07 13:46:36;;;;;;;38.17;25.77;;;;;;;14.91;73.26;93905.53;5110181;28;20837;-46
2021/11/07 13:49:06;;;;;;;34.35;20.92;;;;;;;15.15;72.09;93907.59;5111146;28;20027;-47
2021/11/07 13:51:35;;;;;;;24.67;16.65;;;;;;;15.30;70.92;93912.31;5111773;28;20073;-48
2021/11/07 13:54:03;;;;;;;24.85;17.20;;;;;;;15.30;70.90;93903.94;5110392;28;20171;-46
2021/11/07 13:56:30;;;;;;;27.83;18.13;;;;;;;15.37;70.91;93903.91;5111774;28;20031;-47
2021/11/07 13:58:55;;;;;;;21.50;17.00;;;;;;;15.46;70.34;93903.31;5110043;28;20051;-47
2021/11/07 14:01:21;;;;;;;22.13;15.20;;;;;;;15.58;69.13;93909.88;5073323;28;20453;-46